Time;durP1;ratioP1;P1;durP2;ratioP2;P2;SDS_P1;SDS_P2;PMS_P1;PMS_P2;Temp;Humidity;BMP_temperature;BMP_pressure;BME280_temperature;BME280_humidity;BME280_pressure;Samples;Min_cycle;Max_cycle;Signal;HPM_P1;HPM_P2
2023/09/23 00:00:19;;;;;;;0.95;0.60;;;23.20;55.60;;;;;;4999984;28;20030;-67
2023/09/23 00:02:45;;;;;;;0.88;0.52;;;23.20;55.60;;;;;;4997957;28;20101;-67
2023/09/23 00:05:11;;;;;;;0.73;0.55;;;23.20;55.60;;;;;;5000780;28;20774;-67
2023/09/23 00:07:41;;;;;;;1.77;0.90;;;23.20;55.60;;;;;;4996014;28;20039;-67
2023/09/23 00:10:11;;;;;;;1.25;0.70;;;23.20;55.60;;;;;;4997075;28;20509;-68
2023/09/23 00:12:38;;;;;;;0.88;0.57;;;23.20;55.60;;;;;;4998591;28;20383;-67
2023/09/23 00:15:05;;;;;;;0.93;0.60;;;23.20;55.60;;;;;;4998625;28;20026;-67
2023/09/23 00:17:31;;;;;;;1.02;0.60;;;23.20;55.60;;;;;;5014972;28;20121;-67
2023/09/23 00:19:58;;;;;;;0.98;0.65;;;23.20;55.60;;;;;;4996384;28;20027;-67
2023/09/23 00:22:23;;;;;;;0.90;0.65;;;23.20;55.60;;;;;;4994498;28;20034;-67
2023/09/23 00:24:50;;;;;;;1.25;0.65;;;23.20;55.60;;;;;;4998490;28;20117;-67
2023/09/23 00:27:17;;;;;;;1.20;0.70;;;23.20;55.60;;;;;;4998185;28;20077;-67
2023/09/23 00:29:44;;;;;;;1.05;0.60;;;23.20;55.60;;;;;;5001059;28;20605;-67
2023/09/23 00:32:12;;;;;;;0.98;0.60;;;23.20;55.60;;;;;;5002113;28;20053;-67
2023/09/23 00:34:38;;;;;;;1.30;0.70;;;23.20;55.60;;;;;;5001739;28;20101;-67
2023/09/23 00:37:04;;;;;;;0.95;0.60;;;23.20;55.60;;;;;;4999639;28;20688;-67
2023/09/23 00:39:30;;;;;;;2.17;0.90;;;23.20;55.60;;;;;;5005241;28;20377;-67
2023/09/23 00:41:55;;;;;;;0.70;0.60;;;23.20;55.60;;;;;;5002072;28;20026;-69
2023/09/23 00:44:21;;;;;;;1.15;0.65;;;23.20;55.60;;;;;;5002033;28;20365;-68
2023/09/23 00:46:46;;;;;;;1.05;0.65;;;23.20;55.60;;;;;;5002394;28;20427;-69
2023/09/23 00:49:13;;;;;;;1.05;0.60;;;23.10;55.50;;;;;;5003526;28;20497;-69
2023/09/23 00:51:40;;;;;;;0.70;0.70;;;23.20;55.60;;;;;;5001906;28;20038;-68
2023/09/23 00:54:13;;;;;;;0.77;0.68;;;23.10;55.50;;;;;;5000845;28;20041;-69
2023/09/23 00:56:42;;;;;;;0.98;0.50;;;23.10;55.50;;;;;;5000860;28;20034;-69
2023/09/23 00:59:07;;;;;;;0.65;0.60;;;23.10;55.50;;;;;;5002642;28;20022;-69
2023/09/23 01:01:33;;;;;;;0.70;0.60;;;23.20;55.60;;;;;;5002057;28;20096;-68
2023/09/23 01:03:59;;;;;;;0.77;0.60;;;23.10;55.50;;;;;;5002314;28;20022;-68
2023/09/23 01:06:28;;;;;;;1.10;0.70;;;23.10;55.50;;;;;;5001620;28;20022;-68
2023/09/23 01:08:54;;;;;;;0.70;0.68;;;23.20;55.60;;;;;;5000933;28;20960;-68
2023/09/23 01:11:21;;;;;;;1.35;0.60;;;23.10;55.50;;;;;;5000899;28;20030;-68
2023/09/23 01:13:51;;;;;;;1.35;0.70;;;23.10;55.50;;;;;;5015550;28;20117;-68
2023/09/23 01:16:17;;;;;;;1.23;0.70;;;23.10;55.50;;;;;;5016793;28;20038;-68
2023/09/23 01:18:47;;;;;;;0.88;0.60;;;23.10;55.50;;;;;;4999497;28;20018;-68
2023/09/23 01:21:12;;;;;;;0.95;0.60;;;23.10;55.50;;;;;;4999979;28;20096;-68
2023/09/23 01:23:39;;;;;;;0.65;0.50;;;23.10;55.50;;;;;;5001153;28;20165;-68
2023/09/23 01:26:04;;;;;;;0.63;0.50;;;23.10;55.50;;;;;;5001704;28;20477;-68
2023/09/23 01:28:33;;;;;;;1.00;0.60;;;23.10;55.50;;;;;;5000025;28;20128;-68
2023/09/23 01:31:02;;;;;;;0.90;0.70;;;23.10;56.00;;;;;;5001394;28;20033;-68
2023/09/23 01:33:29;;;;;;;0.60;0.60;;;23.10;55.50;;;;;;4998727;28;20034;-68
2023/09/23 01:35:57;;;;;;;0.60;0.47;;;23.10;55.50;;;;;;5001850;28;20057;-68
2023/09/23 01:38:24;;;;;;;0.75;0.57;;;23.10;55.50;;;;;;5000566;28;20033;-68
2023/09/23 01:40:51;;;;;;;0.88;0.50;;;23.10;55.50;;;;;;4999491;28;20422;-68
2023/09/23 01:43:17;;;;;;;0.50;0.50;;;23.10;55.50;;;;;;5000960;28;20080;-67
2023/09/23 01:45:44;;;;;;;1.35;0.93;;;23.10;55.50;;;;;;4999621;28;20030;-67
2023/09/23 01:48:10;;;;;;;1.20;0.70;;;23.10;55.50;;;;;;5000610;28;20041;-67
2023/09/23 01:50:35;;;;;;;0.90;0.57;;;23.10;55.50;;;;;;5001704;28;20038;-67
2023/09/23 01:53:01;;;;;;;0.73;0.60;;;23.10;55.50;;;;;;4997078;28;20056;-69
2023/09/23 01:55:30;;;;;;;1.17;0.50;;;23.10;55.50;;;;;;5000123;28;20042;-69
2023/09/23 01:57:56;;;;;;;0.63;0.50;;;23.10;55.50;;;;;;4999286;28;20029;-68
2023/09/23 02:00:24;;;;;;;1.15;0.70;;;23.10;55.50;;;;;;5001344;28;20038;-68
2023/09/23 02:02:53;;;;;;;0.75;0.50;;;23.10;55.50;;;;;;4999878;28;20022;-69
2023/09/23 02:05:19;;;;;;;;;;;23.10;55.50;;;;;;5000085;28;20125;-69
2023/09/23 02:07:47;;;;;;;0.90;0.55;;;23.10;55.60;;;;;;4999329;28;20417;-69
2023/09/23 02:10:15;;;;;;;0.88;0.50;;;23.10;55.50;;;;;;4999970;28;20030;-68
2023/09/23 02:12:42;;;;;;;1.02;0.60;;;23.00;55.50;;;;;;4998939;28;20458;-67
2023/09/23 02:15:09;;;;;;;0.52;0.52;;;23.00;55.50;;;;;;4998388;28;20041;-67
2023/09/23 02:17:37;;;;;;;1.10;0.70;;;23.00;55.50;;;;;;4998364;28;20036;-67
2023/09/23 02:20:17;;;;;;;0.60;0.53;;;23.00;55.50;;;;;;4998689;28;20378;-67
2023/09/23 02:22:45;;;;;;;1.30;0.70;;;23.10;55.50;;;;;;4996770;28;20033;-67
2023/09/23 02:25:12;;;;;;;0.70;0.60;;;23.00;55.50;;;;;;5001481;28;20022;-67
2023/09/23 02:27:38;;;;;;;1.02;0.70;;;23.00;55.50;;;;;;4999802;28;20060;-67
2023/09/23 02:30:06;;;;;;;0.47;0.47;;;23.00;55.50;;;;;;5013277;28;20029;-67
2023/09/23 02:32:32;;;;;;;0.82;0.50;;;23.00;55.50;;;;;;4998334;28;20470;-67
2023/09/23 02:34:57;;;;;;;0.80;0.60;;;23.00;55.50;;;;;;5000986;28;20100;-67
2023/09/23 02:37:26;;;;;;;1.23;0.70;;;23.00;55.50;;;;;;4998490;28;20034;-67
2023/09/23 02:39:52;;;;;;;0.65;0.50;;;23.00;55.50;;;;;;4999719;28;20018;-67
2023/09/23 02:42:18;;;;;;;0.50;0.50;;;23.00;55.50;;;;;;4998736;28;20381;-67
2023/09/23 02:44:45;;;;;;;1.00;0.60;;;23.00;55.50;;;;;;4999769;28;20037;-67
2023/09/23 02:47:11;;;;;;;0.90;0.55;;;23.00;55.50;;;;;;4998377;28;20030;-67
2023/09/23 02:49:36;;;;;;;0.70;0.50;;;23.00;55.50;;;;;;5000722;28;20209;-67
2023/09/23 02:52:02;;;;;;;0.90;0.60;;;23.00;55.50;;;;;;4995531;28;20541;-68
2023/09/23 02:54:28;;;;;;;1.10;0.60;;;23.00;55.50;;;;;;4999452;28;20033;-69
2023/09/23 02:56:54;;;;;;;0.45;0.45;;;23.00;56.00;;;;;;5000441;28;20040;-68
2023/09/23 02:59:26;;;;;;;0.88;0.55;;;23.00;55.50;;;;;;4997828;28;20053;-69
2023/09/23 03:01:53;;;;;;;1.08;0.63;;;23.00;55.50;;;;;;4999494;28;20022;-68
2023/09/23 03:04:20;;;;;;;0.63;0.50;;;22.90;55.40;;;;;;4998823;28;20014;-68
2023/09/23 03:06:54;;;;;;;0.75;0.50;;;23.00;55.50;;;;;;4996841;28;20511;-69
2023/09/23 03:09:23;;;;;;;0.75;0.57;;;22.90;55.40;;;;;;4998703;28;20042;-69
2023/09/23 03:11:57;;;;;;;0.63;0.50;;;22.90;55.50;;;;;;5007363;28;20180;-69
2023/09/23 03:14:40;;;;;;;0.77;0.65;;;22.90;55.90;;;;;;4998750;28;20109;-69
2023/09/23 03:17:07;;;;;;;0.75;0.50;;;22.90;55.40;;;;;;4998059;28;20504;-69
2023/09/23 03:19:33;;;;;;;0.70;0.50;;;22.90;55.50;;;;;;4997410;28;20018;-69
2023/09/23 03:22:00;;;;;;;0.77;0.52;;;22.90;55.40;;;;;;4994524;28;20026;-67
2023/09/23 03:24:29;;;;;;;0.88;0.50;;;22.90;55.40;;;;;;4997975;28;20037;-67
2023/09/23 03:27:00;;;;;;;0.43;0.43;;;22.90;55.40;;;;;;4999034;28;20113;-67
2023/09/23 03:29:30;;;;;;;0.70;0.60;;;22.90;55.40;;;;;;4998688;28;20450;-67
2023/09/23 03:31:56;;;;;;;0.63;0.60;;;22.90;55.40;;;;;;4999703;28;20049;-67
2023/09/23 03:34:23;;;;;;;0.60;0.60;;;22.90;55.50;;;;;;4998303;28;20120;-67
2023/09/23 03:36:51;;;;;;;0.80;0.50;;;22.90;55.40;;;;;;4999407;28;20549;-67
2023/09/23 03:39:17;;;;;;;0.63;0.47;;;22.90;55.40;;;;;;4998956;28;20033;-67
2023/09/23 03:41:46;;;;;;;0.70;0.57;;;22.90;55.40;;;;;;4999509;28;20080;-67
2023/09/23 03:44:14;;;;;;;1.00;0.50;;;22.90;55.50;;;;;;4998409;28;20023;-67
2023/09/23 03:46:40;;;;;;;0.52;0.50;;;22.90;55.40;;;;;;4997415;28;20022;-68
2023/09/23 03:49:06;;;;;;;0.82;0.60;;;22.90;55.40;;;;;;5000216;28;20399;-67
2023/09/23 03:51:33;;;;;;;0.85;0.50;;;22.90;55.50;;;;;;4998216;28;20042;-67
2023/09/23 03:53:59;;;;;;;0.47;0.47;;;22.90;55.40;;;;;;4996596;28;20026;-67
2023/09/23 03:56:27;;;;;;;0.68;0.60;;;22.90;55.40;;;;;;4997979;28;20030;-67
2023/09/23 03:58:55;;;;;;;0.40;0.40;;;22.90;55.40;;;;;;4998184;28;20026;-67
2023/09/23 04:01:23;;;;;;;0.70;0.50;;;22.90;55.40;;;;;;4998620;28;20041;-67
2023/09/23 04:03:52;;;;;;;0.82;0.60;;;22.90;55.40;;;;;;5000426;28;20091;-69
2023/09/23 04:06:18;;;;;;;0.60;0.50;;;22.90;55.40;;;;;;5001949;28;20031;-69
2023/09/23 04:08:44;;;;;;;0.80;0.50;;;22.90;55.50;;;;;;5000531;28;20555;-69
2023/09/23 04:11:10;;;;;;;0.63;0.50;;;22.90;55.40;;;;;;5001239;28;20045;-68
2023/09/23 04:13:38;;;;;;;0.47;0.47;;;22.90;55.50;;;;;;5004309;28;20089;-68
2023/09/23 04:16:05;;;;;;;0.90;0.60;;;22.90;55.40;;;;;;5003368;28;20340;-68
2023/09/23 04:18:31;;;;;;;0.50;0.50;;;22.80;55.40;;;;;;5000996;28;20157;-68
2023/09/23 04:20:58;;;;;;;1.20;0.60;;;22.90;55.40;;;;;;5003285;28;20025;-68
2023/09/23 04:23:23;;;;;;;0.70;0.60;;;22.90;55.40;;;;;;5002870;28;20060;-68
2023/09/23 04:25:50;;;;;;;0.82;0.50;;;22.80;55.40;;;;;;5000084;28;20081;-68
2023/09/23 04:28:16;;;;;;;0.70;0.50;;;22.90;55.50;;;;;;5003861;28;20041;-68
2023/09/23 04:30:42;;;;;;;0.50;0.50;;;22.80;55.40;;;;;;5003093;28;20038;-69
2023/09/23 04:33:08;;;;;;;0.50;0.50;;;22.90;55.50;;;;;;5002019;28;20034;-69
2023/09/23 04:35:36;;;;;;;0.75;0.55;;;22.80;55.50;;;;;;5001630;28;20026;-69
2023/09/23 04:38:02;;;;;;;0.70;0.50;;;22.90;55.50;;;;;;4999610;28;20528;-68
2023/09/23 04:40:31;;;;;;;0.50;0.50;;;22.90;55.50;;;;;;5002328;28;20030;-69
2023/09/23 04:42:57;;;;;;;1.00;0.50;;;22.90;55.50;;;;;;5000793;28;20520;-68
2023/09/23 04:45:24;;;;;;;0.50;0.50;;;22.90;55.50;;;;;;5002136;28;20138;-68
2023/09/23 04:47:52;;;;;;;1.02;0.60;;;22.80;55.50;;;;;;5000722;28;20157;-68
2023/09/23 04:50:18;;;;;;;0.63;0.50;;;22.80;55.50;;;;;;4999800;28;20462;-68
2023/09/23 04:52:44;;;;;;;0.40;0.40;;;22.80;55.50;;;;;;5001235;28;20045;-68
2023/09/23 04:55:10;;;;;;;0.70;0.50;;;22.80;55.50;;;;;;5002958;28;20026;-68
2023/09/23 04:57:38;;;;;;;0.50;0.50;;;22.80;55.50;;;;;;5000252;28;20027;-68
2023/09/23 05:00:05;;;;;;;0.60;0.40;;;22.80;55.50;;;;;;5002417;28;20370;-69
2023/09/23 05:02:31;;;;;;;1.02;0.60;;;22.80;55.50;;;;;;5001834;28;20112;-68
2023/09/23 05:04:57;;;;;;;0.40;0.38;;;22.80;55.50;;;;;;5001223;28;20033;-68
2023/09/23 05:07:26;;;;;;;0.82;0.50;;;22.80;55.50;;;;;;5002750;28;20030;-68
2023/09/23 05:09:55;;;;;;;0.40;0.40;;;22.80;55.50;;;;;;4999815;28;20159;-68
2023/09/23 05:12:21;;;;;;;1.42;0.68;;;22.80;55.50;;;;;;5001205;28;20497;-65
2023/09/23 05:14:47;;;;;;;0.40;0.40;;;22.80;55.50;;;;;;5001965;28;20045;-63
2023/09/23 05:17:15;;;;;;;0.65;0.50;;;22.80;55.50;;;;;;5001117;28;20191;-64
2023/09/23 05:19:46;;;;;;;0.40;0.40;;;22.80;55.40;;;;;;5000508;28;20034;-64
2023/09/23 05:22:12;;;;;;;0.40;0.40;;;22.80;55.50;;;;;;5003153;28;20034;-68
2023/09/23 05:24:38;;;;;;;1.13;0.60;;;22.80;55.50;;;;;;4999074;28;20030;-68
2023/09/23 05:27:04;;;;;;;0.47;0.45;;;22.80;55.50;;;;;;5000601;28;20482;-68
2023/09/23 05:29:30;;;;;;;0.55;0.50;;;22.80;55.40;;;;;;5001799;28;20030;-68
2023/09/23 05:31:56;;;;;;;0.50;0.47;;;22.80;55.40;;;;;;5003037;28;20065;-69
2023/09/23 05:34:21;;;;;;;0.50;0.40;;;22.80;55.50;;;;;;5000194;28;20046;-68
2023/09/23 05:36:47;;;;;;;0.75;0.50;;;22.80;55.40;;;;;;4999696;28;20038;-69
2023/09/23 05:39:18;;;;;;;0.40;0.40;;;22.70;55.40;;;;;;4999247;28;20018;-68
2023/09/23 05:41:48;;;;;;;0.77;0.60;;;22.70;55.40;;;;;;5015681;28;20022;-64
2023/09/23 05:44:15;;;;;;;0.80;0.50;;;22.70;55.40;;;;;;5001352;28;20465;-68
2023/09/23 05:46:42;;;;;;;1.17;0.65;;;22.70;55.40;;;;;;4999627;28;20552;-68
2023/09/23 05:49:12;;;;;;;0.88;0.52;;;22.80;55.40;;;;;;5000356;28;20022;-68
2023/09/23 05:51:37;;;;;;;;;;;22.80;55.40;;;;;;5000109;28;20060;-68
2023/09/23 05:54:03;;;;;;;0.57;0.52;;;22.70;55.40;;;;;;4996773;28;20377;-68
2023/09/23 05:56:29;;;;;;;0.50;0.40;;;22.70;55.30;;;;;;5000389;28;20117;-68
2023/09/23 05:58:54;;;;;;;0.77;0.50;;;22.70;55.40;;;;;;5000484;28;20030;-68
2023/09/23 06:01:20;;;;;;;0.65;0.40;;;22.70;55.40;;;;;;5000668;28;20133;-69
2023/09/23 06:03:46;;;;;;;0.90;0.63;;;22.70;55.40;;;;;;5000848;28;20030;-69
2023/09/23 06:06:11;;;;;;;0.80;0.50;;;22.70;55.40;;;;;;5001778;28;20107;-69
2023/09/23 06:08:38;;;;;;;0.52;0.45;;;22.70;55.40;;;;;;4998408;28;20062;-68
2023/09/23 06:11:04;;;;;;;0.50;0.50;;;22.70;55.40;;;;;;4999774;28;20027;-68
2023/09/23 06:13:31;;;;;;;0.50;0.40;;;22.70;55.40;;;;;;5000379;28;20026;-68
2023/09/23 06:16:07;;;;;;;0.70;0.50;;;22.70;55.40;;;;;;5015155;28;20049;-68
2023/09/23 06:18:33;;;;;;;0.47;0.47;;;22.70;55.40;;;;;;5008117;28;20117;-68
2023/09/23 06:21:03;;;;;;;0.57;0.57;;;22.70;55.30;;;;;;5002359;28;20022;-68
2023/09/23 06:23:29;;;;;;;0.50;0.50;;;22.70;55.30;;;;;;4999702;28;20085;-68
2023/09/23 06:25:57;;;;;;;0.70;0.55;;;22.70;55.30;;;;;;4998322;28;20059;-68
2023/09/23 06:28:23;;;;;;;0.85;0.60;;;22.70;55.30;;;;;;5000805;28;20033;-68
2023/09/23 06:30:48;;;;;;;0.63;0.50;;;22.70;55.30;;;;;;5000978;28;20448;-68
2023/09/23 06:33:14;;;;;;;0.52;0.50;;;22.70;55.30;;;;;;5000638;28;20034;-68
2023/09/23 06:35:40;;;;;;;1.48;0.60;;;22.70;55.30;;;;;;5006508;28;20474;-69
2023/09/23 06:38:05;;;;;;;1.00;0.60;;;22.60;55.20;;;;;;4999376;28;20092;-69
2023/09/23 06:40:31;;;;;;;0.65;0.50;;;22.70;55.30;;;;;;4997009;28;20523;-69
2023/09/23 06:42:57;;;;;;;0.60;0.50;;;22.70;55.30;;;;;;4999116;28;20080;-68
2023/09/23 06:45:22;;;;;;;0.68;0.50;;;22.70;55.30;;;;;;5000043;28;20132;-68
2023/09/23 06:47:48;;;;;;;0.65;0.50;;;22.70;55.30;;;;;;5000503;28;20030;-68
2023/09/23 06:50:14;;;;;;;0.73;0.52;;;22.70;55.30;;;;;;4996716;28;20038;-68
2023/09/23 06:52:41;;;;;;;0.70;0.50;;;22.70;55.30;;;;;;4998574;28;20037;-65
2023/09/23 06:55:07;;;;;;;0.50;0.50;;;22.60;55.20;;;;;;4999068;28;20073;-64
2023/09/23 06:57:35;;;;;;;0.57;0.50;;;22.70;55.30;;;;;;4999415;28;20104;-64
2023/09/23 07:00:01;;;;;;;0.60;0.50;;;22.70;55.30;;;;;;5000347;28;20028;-64
2023/09/23 07:02:27;;;;;;;0.80;0.50;;;22.60;55.20;;;;;;4999126;28;20440;-65
2023/09/23 07:04:53;;;;;;;0.45;0.45;;;22.60;55.20;;;;;;4996817;28;20118;-64
2023/09/23 07:07:18;;;;;;;0.60;0.50;;;22.60;55.20;;;;;;4997907;28;20034;-65
2023/09/23 07:09:44;;;;;;;0.90;0.50;;;22.60;55.20;;;;;;4999539;28;20109;-65
2023/09/23 07:12:12;;;;;;;0.60;0.60;;;22.60;55.70;;;;;;4999050;28;20488;-64
2023/09/23 07:14:39;;;;;;;0.40;0.40;;;22.60;55.20;;;;;;4997796;28;20934;-64
2023/09/23 07:17:06;;;;;;;0.50;0.50;;;22.60;55.10;;;;;;4999698;28;20522;-65
2023/09/23 07:19:35;;;;;;;0.40;0.40;;;22.60;55.10;;;;;;4997551;28;20046;-64
2023/09/23 07:22:01;;;;;;;0.45;0.40;;;22.60;55.00;;;;;;4997559;28;20060;-64
2023/09/23 07:24:27;;;;;;;0.55;0.50;;;22.60;55.00;;;;;;4997128;28;20092;-64
2023/09/23 07:26:57;;;;;;;0.50;0.50;;;22.60;55.00;;;;;;4999101;28;20034;-66
2023/09/23 07:29:23;;;;;;;0.43;0.43;;;22.60;55.00;;;;;;4999209;28;20018;-64
2023/09/23 07:31:49;;;;;;;0.50;0.50;;;22.60;55.00;;;;;;4998072;28;20023;-65
2023/09/23 07:34:15;;;;;;;0.43;0.43;;;22.60;55.00;;;;;;4998723;28;20054;-65
2023/09/23 07:36:42;;;;;;;1.38;0.60;;;22.60;55.00;;;;;;4998285;28;20026;-66
2023/09/23 07:39:08;;;;;;;0.85;0.60;;;22.60;55.10;;;;;;4994953;28;20048;-64
2023/09/23 07:41:34;;;;;;;0.50;0.50;;;22.60;55.00;;;;;;5008325;28;20382;-66
2023/09/23 07:43:59;;;;;;;0.60;0.47;;;22.60;55.00;;;;;;4998873;28;20045;-64
2023/09/23 07:46:25;;;;;;;0.65;0.57;;;22.60;55.00;;;;;;4998859;28;20033;-64
2023/09/23 07:48:51;;;;;;;0.43;0.43;;;22.60;55.00;;;;;;4998074;28;20038;-64
2023/09/23 07:51:16;;;;;;;0.40;0.40;;;22.60;55.00;;;;;;4998269;28;20061;-64
2023/09/23 07:53:42;;;;;;;0.52;0.47;;;22.60;55.00;;;;;;4996538;28;20026;-64
2023/09/23 07:56:09;;;;;;;0.75;0.50;;;22.60;55.00;;;;;;4998505;28;20041;-67
2023/09/23 07:58:35;;;;;;;0.55;0.50;;;22.60;55.00;;;;;;4996643;28;20049;-66
2023/09/23 08:01:01;;;;;;;0.68;0.55;;;22.60;55.00;;;;;;4999579;28;20581;-64
2023/09/23 08:03:28;;;;;;;0.82;0.50;;;22.60;55.00;;;;;;4998403;28;20031;-68
2023/09/23 08:05:54;;;;;;;0.63;0.55;;;22.60;55.00;;;;;;5011845;28;20438;-69
2023/09/23 08:08:19;;;;;;;0.43;0.40;;;22.60;55.00;;;;;;4997022;28;20060;-69
2023/09/23 08:10:45;;;;;;;0.43;0.40;;;22.60;55.00;;;;;;4995815;28;20113;-70
2023/09/23 08:13:11;;;;;;;0.50;0.50;;;22.60;55.00;;;;;;4996689;28;20026;-69
2023/09/23 08:15:37;;;;;;;0.60;0.50;;;22.60;55.00;;;;;;4998773;28;20057;-69
2023/09/23 08:18:02;;;;;;;0.77;0.50;;;22.60;55.00;;;;;;4995601;28;20034;-70
2023/09/23 08:20:29;;;;;;;0.65;0.45;;;22.60;54.90;;;;;;4999360;28;20030;-69
2023/09/23 08:22:55;;;;;;;0.47;0.40;;;22.60;54.90;;;;;;4998023;28;20033;-69
2023/09/23 08:25:20;;;;;;;0.40;0.40;;;22.60;54.90;;;;;;4999171;28;20034;-68
2023/09/23 08:27:47;;;;;;;0.75;0.50;;;22.60;54.90;;;;;;4999320;28;20513;-69
2023/09/23 08:30:16;;;;;;;0.90;0.50;;;22.60;54.90;;;;;;4998511;28;20494;-70
2023/09/23 08:32:41;;;;;;;0.50;0.50;;;22.60;54.80;;;;;;4997779;28;20585;-70
2023/09/23 08:35:07;;;;;;;1.00;0.57;;;22.60;54.80;;;;;;4998402;28;20066;-69
2023/09/23 08:37:34;;;;;;;0.68;0.55;;;22.60;54.80;;;;;;4998331;28;20030;-68
2023/09/23 08:40:00;;;;;;;0.45;0.40;;;22.60;54.70;;;;;;4997395;28;20474;-69
2023/09/23 08:42:27;;;;;;;0.60;0.45;;;22.60;54.70;;;;;;4998657;28;20040;-69
2023/09/23 08:44:54;;;;;;;0.70;0.40;;;22.60;54.70;;;;;;4996862;28;20329;-68
2023/09/23 08:47:20;;;;;;;0.60;0.52;;;22.50;54.70;;;;;;4998363;28;20091;-69
2023/09/23 08:49:47;;;;;;;0.60;0.40;;;22.60;54.70;;;;;;5000633;28;20519;-68
2023/09/23 08:52:16;;;;;;;0.40;0.40;;;22.60;54.70;;;;;;5001525;28;20038;-66
2023/09/23 08:54:42;;;;;;;0.80;0.60;;;22.60;54.70;;;;;;4998639;28;20050;-67
2023/09/23 08:57:08;;;;;;;0.50;0.50;;;22.60;54.60;;;;;;5001282;28;20045;-67
2023/09/23 08:59:34;;;;;;;0.60;0.40;;;22.50;54.60;;;;;;5001226;28;20478;-66
2023/09/23 09:01:59;;;;;;;1.02;0.60;;;22.60;54.50;;;;;;5000523;28;20449;-67
2023/09/23 09:04:26;;;;;;;0.90;0.50;;;22.50;54.40;;;;;;5001645;28;20061;-66
2023/09/23 09:06:53;;;;;;;0.70;0.50;;;22.60;54.50;;;;;;5016706;28;20513;-66
2023/09/23 09:09:18;;;;;;;0.88;0.50;;;22.50;54.40;;;;;;5002123;28;20027;-66
2023/09/23 09:11:49;;;;;;;0.70;0.50;;;22.50;54.40;;;;;;4999255;28;20038;-69
2023/09/23 09:14:16;;;;;;;1.02;0.60;;;22.50;54.40;;;;;;5000109;28;20085;-70
2023/09/23 09:16:41;;;;;;;0.70;0.50;;;22.50;54.40;;;;;;5000604;28;20026;-69
2023/09/23 09:19:07;;;;;;;0.60;0.40;;;22.60;54.50;;;;;;5000729;28;20027;-68
2023/09/23 09:21:34;;;;;;;0.88;0.50;;;22.60;54.40;;;;;;4998668;28;20033;-69
2023/09/23 09:24:00;;;;;;;0.60;0.47;;;22.60;54.40;;;;;;5000559;28;20077;-69
2023/09/23 09:26:26;;;;;;;0.70;0.50;;;22.60;54.40;;;;;;4999130;28;20486;-69
2023/09/23 09:28:52;;;;;;;0.88;0.60;;;22.50;54.30;;;;;;5001563;28;20089;-69
2023/09/23 09:31:17;;;;;;;0.50;0.50;;;22.60;54.40;;;;;;5000017;28;20038;-69
2023/09/23 09:33:50;;;;;;;0.40;0.40;;;22.60;54.30;;;;;;4999802;28;20038;-68
2023/09/23 09:36:23;;;;;;;0.65;0.50;;;22.60;54.30;;;;;;5001702;28;20030;-69
2023/09/23 09:38:54;;;;;;;0.70;0.50;;;22.50;54.30;;;;;;5000721;28;20057;-69
2023/09/23 09:41:37;;;;;;;0.77;0.50;;;22.50;54.70;;;;;;4999520;28;20038;-68
2023/09/23 09:44:04;;;;;;;0.43;0.43;;;22.50;54.20;;;;;;4999782;28;20044;-69
2023/09/23 09:46:31;;;;;;;0.68;0.47;;;22.50;54.20;;;;;;4999322;28;20033;-69
2023/09/23 09:48:59;;;;;;;0.38;0.38;;;22.50;54.20;;;;;;5002059;28;20037;-69
2023/09/23 09:51:25;;;;;;;0.50;0.50;;;22.50;54.20;;;;;;5001639;28;20034;-69
2023/09/23 09:53:51;;;;;;;0.60;0.50;;;22.50;54.20;;;;;;4999954;28;20034;-68
2023/09/23 09:56:19;;;;;;;0.50;0.40;;;22.50;54.20;;;;;;4998999;28;20097;-68
2023/09/23 09:58:48;;;;;;;0.70;0.50;;;22.50;54.20;;;;;;5002191;28;20046;-69
2023/09/23 10:01:14;;;;;;;0.45;0.45;;;22.50;54.20;;;;;;5002280;28;20428;-69
2023/09/23 10:03:43;;;;;;;0.50;0.50;;;22.50;54.20;;;;;;5001676;28;20035;-67
2023/09/23 10:06:08;;;;;;;0.50;0.50;;;22.50;54.20;;;;;;4998636;28;20038;-66
2023/09/23 10:08:38;;;;;;;0.60;0.50;;;22.60;54.20;;;;;;5000564;28;20076;-65
2023/09/23 10:11:08;;;;;;;0.77;0.50;;;22.50;54.20;;;;;;4999018;28;20030;-66
2023/09/23 10:13:34;;;;;;;0.65;0.50;;;22.60;54.20;;;;;;5001974;28;20026;-66
2023/09/23 10:16:18;;;;;;;0.40;0.40;;;22.60;54.20;;;;;;5000522;28;20026;-66
2023/09/23 10:18:53;;;;;;;0.50;0.50;;;22.50;54.20;;;;;;5000289;28;20485;-67
2023/09/23 10:21:29;;;;;;;0.43;0.43;;;22.60;54.20;;;;;;4999979;28;20022;-66
2023/09/23 10:24:00;;;;;;;0.98;0.55;;;22.50;54.20;;;;;;4998941;28;20036;-65
2023/09/23 10:26:28;;;;;;;0.50;0.50;;;22.50;54.20;;;;;;4999266;28;20470;-64
2023/09/23 10:28:59;;;;;;;0.52;0.52;;;22.50;54.20;;;;;;4998026;28;20030;-65
2023/09/23 10:31:26;;;;;;;0.57;0.50;;;22.50;54.20;;;;;;5000532;28;20046;-64
2023/09/23 10:33:54;;;;;;;0.60;0.50;;;22.50;54.20;;;;;;4999050;28;20037;-65
2023/09/23 10:36:21;;;;;;;1.10;0.52;;;22.60;54.30;;;;;;4998855;28;20042;-64
2023/09/23 10:38:46;;;;;;;0.70;0.65;;;22.50;54.20;;;;;;5000430;28;20029;-64
2023/09/23 10:41:12;;;;;;;0.60;0.50;;;22.50;54.20;;;;;;4998023;28;20030;-64
2023/09/23 10:43:38;;;;;;;0.40;0.40;;;22.50;54.20;;;;;;5000203;28;20032;-64
2023/09/23 10:46:05;;;;;;;0.40;0.40;;;22.50;54.20;;;;;;4999284;28;20045;-64
2023/09/23 10:48:34;;;;;;;0.65;0.50;;;22.50;54.20;;;;;;5000141;28;20026;-64
2023/09/23 10:51:01;;;;;;;0.85;0.60;;;22.50;54.20;;;;;;4997967;28;20389;-64
2023/09/23 10:53:30;;;;;;;0.95;0.40;;;22.50;54.20;;;;;;4998352;28;20030;-64
2023/09/23 10:55:57;;;;;;;0.60;0.50;;;22.50;54.10;;;;;;4999343;28;20076;-65
2023/09/23 10:58:23;;;;;;;1.02;0.57;;;22.50;54.10;;;;;;4998894;28;20025;-63
2023/09/23 11:00:52;;;;;;;0.30;0.30;;;22.50;54.20;;;;;;4999176;28;20653;-65
2023/09/23 11:03:19;;;;;;;0.50;0.47;;;22.60;54.20;;;;;;4998802;28;20137;-64
2023/09/23 11:05:46;;;;;;;0.60;0.50;;;22.50;54.20;;;;;;4999854;28;20037;-63
2023/09/23 11:08:13;;;;;;;0.82;0.50;;;22.50;54.10;;;;;;4997359;28;20029;-64
2023/09/23 11:10:40;;;;;;;0.50;0.50;;;22.50;54.10;;;;;;5011477;28;20034;-63
2023/09/23 11:13:08;;;;;;;0.70;0.40;;;22.50;54.10;;;;;;4998912;28;20018;-63
2023/09/23 11:15:35;;;;;;;0.60;0.50;;;22.50;54.00;;;;;;4998310;28;20052;-63
2023/09/23 11:18:01;;;;;;;0.65;0.50;;;22.50;54.00;;;;;;4998607;28;20088;-62
2023/09/23 11:20:31;;;;;;;0.38;0.38;;;22.60;54.10;;;;;;4998971;28;20038;-62
2023/09/23 11:23:05;;;;;;;0.50;0.47;;;22.50;54.00;;;;;;5000019;28;20045;-64
2023/09/23 11:25:51;;;;;;;0.50;0.40;;;22.50;54.00;;;;;;4997939;28;20022;-63
2023/09/23 11:28:24;;;;;;;0.65;0.50;;;22.50;53.90;;;;;;4997762;28;20046;-63
2023/09/23 11:30:51;;;;;;;0.60;0.50;;;22.60;54.00;;;;;;4998684;28;20022;-65
2023/09/23 11:33:17;;;;;;;1.17;0.50;;;22.60;53.90;;;;;;4998180;28;20057;-62
2023/09/23 11:35:44;;;;;;;0.63;0.50;;;22.60;53.90;;;;;;4997835;28;20033;-64
2023/09/23 11:38:11;;;;;;;0.60;0.50;;;22.60;53.90;;;;;;4998438;28;20376;-64
2023/09/23 11:40:37;;;;;;;0.75;0.50;;;22.60;53.90;;;;;;4996956;28;20446;-64
2023/09/23 11:43:03;;;;;;;0.98;0.47;;;22.60;53.80;;;;;;4994991;28;20478;-63
2023/09/23 11:45:30;;;;;;;0.55;0.50;;;22.60;53.80;;;;;;4999255;28;20422;-64
2023/09/23 11:47:56;;;;;;;0.50;0.50;;;22.60;53.90;;;;;;5004579;28;20053;-63
2023/09/23 11:50:23;;;;;;;0.98;0.55;;;22.60;53.80;;;;;;4999546;28;20512;-63
2023/09/23 11:52:49;;;;;;;1.60;0.50;;;22.50;53.80;;;;;;4997245;28;20034;-64
2023/09/23 11:55:16;;;;;;;0.52;0.50;;;22.60;53.80;;;;;;4999107;28;20057;-62
2023/09/23 11:57:42;;;;;;;0.68;0.50;;;22.50;53.70;;;;;;4996756;28;20033;-64
2023/09/23 12:00:13;;;;;;;0.55;0.50;;;22.50;53.70;;;;;;4998579;28;20019;-64
2023/09/23 12:02:40;;;;;;;0.80;0.57;;;22.60;53.80;;;;;;4999542;28;20061;-64
2023/09/23 12:05:07;;;;;;;0.55;0.50;;;22.60;53.70;;;;;;5000439;28;20046;-63
2023/09/23 12:07:32;;;;;;;1.10;0.65;;;22.60;53.70;;;;;;5012809;28;20038;-64
2023/09/23 12:09:58;;;;;;;0.85;0.60;;;22.60;53.70;;;;;;4998067;28;20038;-63
2023/09/23 12:12:24;;;;;;;1.05;0.60;;;22.60;53.70;;;;;;4998574;28;20042;-63
2023/09/23 12:14:50;;;;;;;1.20;0.70;;;22.50;53.70;;;;;;4998976;28;20114;-63
2023/09/23 12:17:16;;;;;;;1.10;0.70;;;22.60;53.70;;;;;;4997384;28;20105;-62
2023/09/23 12:19:44;;;;;;;0.60;0.60;;;22.60;53.80;;;;;;4997192;28;20571;-63
2023/09/23 12:22:12;;;;;;;0.93;0.50;;;22.50;53.80;;;;;;4999566;28;20445;-68
2023/09/23 12:24:38;;;;;;;0.73;0.60;;;22.60;53.80;;;;;;4999087;28;20026;-68
2023/09/23 12:27:04;;;;;;;0.65;0.50;;;22.60;53.80;;;;;;4998848;28;20105;-68
2023/09/23 12:29:30;;;;;;;0.70;0.57;;;22.60;53.80;;;;;;4998675;28;20109;-68
2023/09/23 12:31:55;;;;;;;0.77;0.60;;;22.60;53.80;;;;;;4999488;28;20045;-68
2023/09/23 12:34:21;;;;;;;0.85;0.70;;;22.60;53.80;;;;;;5000662;28;20077;-68
2023/09/23 12:36:47;;;;;;;0.70;0.52;;;22.60;53.90;;;;;;5000600;28;20399;-67
2023/09/23 12:39:15;;;;;;;0.57;0.50;;;22.60;53.80;;;;;;5004381;28;20064;-68
2023/09/23 12:41:41;;;;;;;0.90;0.63;;;22.60;53.80;;;;;;4999490;28;20010;-66
2023/09/23 12:44:07;;;;;;;0.82;0.60;;;22.50;53.80;;;;;;5001694;28;20037;-67
2023/09/23 12:46:32;;;;;;;0.70;0.57;;;22.60;53.80;;;;;;5001734;28;20571;-68